createdAt,value
2022-10-06T00:02:23.656Z,14.00
2022-10-06T00:04:50.464Z,13.90
2022-10-06T00:07:18.084Z,13.90
2022-10-06T00:09:44.738Z,13.90
2022-10-06T00:12:11.315Z,13.90
2022-10-06T00:14:37.988Z,13.90
2022-10-06T00:17:05.175Z,14.00
2022-10-06T00:19:31.980Z,14.00
2022-10-06T00:21:58.624Z,14.00
2022-10-06T00:24:25.171Z,14.00
2022-10-06T00:26:51.796Z,14.00
2022-10-06T00:29:18.771Z,14.00
2022-10-06T00:31:45.808Z,14.00
2022-10-06T00:34:13.019Z,13.90
2022-10-06T00:36:39.973Z,13.80
2022-10-06T00:39:06.693Z,13.80
2022-10-06T00:41:33.415Z,13.70
2022-10-06T00:44:00.368Z,13.80
2022-10-06T00:46:35.687Z,13.70
2022-10-06T00:49:07.498Z,13.70
2022-10-06T00:51:37.791Z,13.70
2022-10-06T00:54:04.793Z,13.70
2022-10-06T00:56:32.057Z,13.60
2022-10-06T00:58:58.689Z,13.70
2022-10-06T01:01:25.652Z,13.60
2022-10-06T01:03:59.968Z,13.60
2022-10-06T01:06:26.582Z,13.50
2022-10-06T01:08:53.365Z,13.60
2022-10-06T01:11:20.909Z,13.50
2022-10-06T01:13:47.813Z,13.50
2022-10-06T01:16:23.383Z,13.50
2022-10-06T01:18:53.135Z,13.50
2022-10-06T01:21:33.618Z,13.50
2022-10-06T01:24:05.606Z,13.50
2022-10-06T01:26:34.811Z,13.50
2022-10-06T01:29:01.820Z,13.40
2022-10-06T01:31:29.583Z,13.40
2022-10-06T01:33:56.460Z,13.40
2022-10-06T01:36:23.542Z,13.30
2022-10-06T01:38:51.611Z,13.30
2022-10-06T01:41:18.354Z,13.20
2022-10-06T01:43:45.725Z,13.30
2022-10-06T01:46:12.866Z,13.30
2022-10-06T01:48:40.884Z,13.20
2022-10-06T01:51:13.937Z,13.10
2022-10-06T01:53:41.103Z,13.10
2022-10-06T01:56:08.928Z,13.10
2022-10-06T01:58:35.879Z,13.10
2022-10-06T02:01:07.061Z,13.00
2022-10-06T02:03:36.654Z,13.00
2022-10-06T02:06:03.454Z,12.90
2022-10-06T02:08:31.383Z,12.90
2022-10-06T02:11:09.133Z,12.90
2022-10-06T02:13:41.341Z,12.90
2022-10-06T02:16:09.190Z,12.80
2022-10-06T02:18:36.523Z,12.80
2022-10-06T02:21:03.976Z,12.80
2022-10-06T02:23:31.234Z,12.90
2022-10-06T02:26:02.804Z,12.80
2022-10-06T02:28:31.160Z,12.80
2022-10-06T02:31:07.222Z,12.80
2022-10-06T02:33:36.002Z,12.80
2022-10-06T02:36:04.131Z,12.70
2022-10-06T02:38:32.455Z,12.60
2022-10-06T02:41:01.539Z,12.60
2022-10-06T02:43:31.292Z,12.60
2022-10-06T02:46:02.628Z,12.60
2022-10-06T02:48:30.697Z,12.50
2022-10-06T02:51:02.670Z,12.50
2022-10-06T02:53:29.691Z,12.50
2022-10-06T02:56:10.892Z,12.40
2022-10-06T02:58:39.805Z,12.40
2022-10-06T03:01:15.437Z,12.40
2022-10-06T03:03:42.722Z,12.40
2022-10-06T03:06:22.042Z,12.40
2022-10-06T03:09:00.010Z,12.40
2022-10-06T03:11:32.869Z,12.40
2022-10-06T03:13:59.740Z,12.30
2022-10-06T03:16:31.945Z,12.30
2022-10-06T03:18:59.903Z,12.30
2022-10-06T03:21:29.414Z,12.20
2022-10-06T03:23:57.358Z,12.20
2022-10-06T03:26:29.296Z,12.20
2022-10-06T03:28:57.240Z,12.20
2022-10-06T03:31:25.616Z,12.10
2022-10-06T03:33:54.390Z,12.10
2022-10-06T03:36:23.832Z,12.10
2022-10-06T03:38:51.636Z,12.00
2022-10-06T03:41:24.937Z,12.00
2022-10-06T03:43:53.957Z,11.90
2022-10-06T03:46:23.693Z,11.90
2022-10-06T03:48:52.362Z,11.80
2022-10-06T03:51:29.458Z,11.80
2022-10-06T03:53:57.829Z,11.80
2022-10-06T03:56:28.203Z,11.80
2022-10-06T03:58:59.520Z,11.80
2022-10-06T04:01:29.355Z,11.80
2022-10-06T04:03:58.213Z,11.80
2022-10-06T04:06:26.648Z,11.70
2022-10-06T04:08:54.402Z,11.70
2022-10-06T04:11:29.794Z,11.70
2022-10-06T04:14:01.690Z,11.70
2022-10-06T04:16:38.189Z,11.70
2022-10-06T04:19:09.798Z,11.60
2022-10-06T04:21:40.967Z,11.60
2022-10-06T04:24:11.043Z,11.60
2022-10-06T04:26:45.033Z,11.60
2022-10-06T04:29:12.643Z,11.60
2022-10-06T04:31:40.999Z,11.50
2022-10-06T04:34:13.252Z,11.60
2022-10-06T04:36:42.472Z,11.50
2022-10-06T04:39:13.312Z,11.50
2022-10-06T04:41:47.137Z,11.50
2022-10-06T04:44:18.864Z,11.40
2022-10-06T04:46:45.915Z,11.50
2022-10-06T04:49:19.455Z,11.50
2022-10-06T04:51:49.516Z,11.50
2022-10-06T04:54:16.893Z,11.50
2022-10-06T04:56:43.525Z,11.40
2022-10-06T04:59:10.798Z,11.40
2022-10-06T05:01:39.658Z,11.40
2022-10-06T05:04:10.268Z,11.40
2022-10-06T05:06:40.904Z,11.40
2022-10-06T05:09:13.439Z,11.40
2022-10-06T05:11:46.639Z,11.40
2022-10-06T05:14:15.707Z,11.40
2022-10-06T05:16:45.181Z,11.30
2022-10-06T05:19:12.881Z,11.40
2022-10-06T05:21:40.740Z,11.30
2022-10-06T05:24:09.204Z,11.30
2022-10-06T05:26:36.924Z,11.30
2022-10-06T05:29:06.522Z,11.30
2022-10-06T05:31:38.567Z,11.30
2022-10-06T05:34:05.491Z,11.30
2022-10-06T05:36:33.842Z,11.20
2022-10-06T05:39:01.874Z,11.20
2022-10-06T05:41:34.155Z,11.10
2022-10-06T05:44:04.581Z,11.10
2022-10-06T05:46:34.008Z,11.10
2022-10-06T05:49:03.387Z,11.00
2022-10-06T05:51:34.385Z,11.00
2022-10-06T05:54:08.910Z,11.00
2022-10-06T05:56:37.727Z,11.00
2022-10-06T05:59:05.157Z,11.00
2022-10-06T06:01:40.720Z,11.00
2022-10-06T06:04:14.373Z,11.00
2022-10-06T06:06:47.071Z,11.00
2022-10-06T06:09:19.050Z,11.00
2022-10-06T06:11:49.674Z,11.00
2022-10-06T06:14:39.367Z,11.00
2022-10-06T06:17:07.026Z,11.00
2022-10-06T06:19:33.671Z,11.00
2022-10-06T06:22:00.407Z,11.00
2022-10-06T06:24:27.071Z,11.00
2022-10-06T06:26:53.733Z,10.90
2022-10-06T06:29:20.381Z,11.00
2022-10-06T06:31:49.836Z,11.00
2022-10-06T06:34:16.479Z,11.00
2022-10-06T06:36:46.856Z,11.00
2022-10-06T06:39:17.573Z,11.00
2022-10-06T06:41:46.214Z,11.10
2022-10-06T06:44:34.651Z,11.10
2022-10-06T06:47:05.168Z,11.10
2022-10-06T06:49:31.817Z,11.10
2022-10-06T06:52:05.108Z,11.20
2022-10-06T06:54:33.857Z,11.20
2022-10-06T06:57:06.924Z,11.20
2022-10-06T06:59:34.013Z,11.20
2022-10-06T07:02:01.077Z,11.30
2022-10-06T07:04:30.582Z,11.30
2022-10-06T07:06:58.281Z,11.30
2022-10-06T07:09:28.448Z,11.40
2022-10-06T07:12:01.039Z,11.40
2022-10-06T07:14:28.757Z,11.40
2022-10-06T07:17:14.030Z,11.50
2022-10-06T07:19:51.177Z,11.60
2022-10-06T07:22:40.383Z,11.60
2022-10-06T07:25:26.450Z,11.60
2022-10-06T07:28:00.235Z,11.70
2022-10-06T07:30:38.461Z,11.80
2022-10-06T07:33:19.531Z,11.80
2022-10-06T07:35:48.096Z,11.90
2022-10-06T07:38:18.519Z,11.90
2022-10-06T07:43:46.802Z,12.00
2022-10-06T07:46:14.587Z,12.10
2022-10-06T07:48:50.344Z,12.20
2022-10-06T07:51:19.425Z,12.20
2022-10-06T07:53:50.771Z,12.30
2022-10-06T07:56:26.281Z,12.30
2022-10-06T07:58:58.367Z,12.40
2022-10-06T08:01:27.309Z,12.50
2022-10-06T08:03:54.191Z,12.50
2022-10-06T08:06:23.466Z,12.60
2022-10-06T08:08:53.226Z,12.60
2022-10-06T08:11:21.523Z,12.70
2022-10-06T08:13:48.377Z,12.80
2022-10-06T08:16:18.235Z,12.80
2022-10-06T08:18:50.225Z,12.90
2022-10-06T08:21:25.007Z,13.00
2022-10-06T08:23:52.776Z,13.00
2022-10-06T08:26:21.803Z,13.10
2022-10-06T08:28:50.609Z,13.20
2022-10-06T08:31:21.157Z,13.20
2022-10-06T08:33:48.697Z,13.30
2022-10-06T08:36:18.441Z,13.40
2022-10-06T08:38:49.879Z,13.50
2022-10-06T08:41:21.124Z,13.50
2022-10-06T08:43:57.017Z,13.60
2022-10-06T08:46:28.274Z,13.70
2022-10-06T08:48:57.305Z,13.80
2022-10-06T08:51:48.340Z,13.90
2022-10-06T08:54:33.326Z,14.00
2022-10-06T08:57:19.563Z,14.10
2022-10-06T08:59:49.393Z,14.20
2022-10-06T09:02:32.241Z,14.20
2022-10-06T09:05:03.437Z,14.30
2022-10-06T09:07:54.726Z,14.40
2022-10-06T09:10:43.121Z,14.50
2022-10-06T09:13:17.347Z,14.60
2022-10-06T09:15:54.376Z,14.60
2022-10-06T09:18:56.167Z,14.70
2022-10-06T09:21:25.710Z,14.80
2022-10-06T09:23:56.751Z,14.90
2022-10-06T09:26:28.297Z,14.90
2022-10-06T09:28:56.811Z,15.10
2022-10-06T09:31:29.511Z,15.10
2022-10-06T09:34:06.248Z,15.20
2022-10-06T09:36:33.628Z,15.30
2022-10-06T09:39:00.683Z,15.40
2022-10-06T09:41:40.186Z,15.40
2022-10-06T09:44:24.644Z,15.40
2022-10-06T09:46:52.404Z,15.60
2022-10-06T09:49:27.405Z,15.70
2022-10-06T09:52:15.200Z,15.80
2022-10-06T09:54:44.640Z,16.00
2022-10-06T09:57:19.729Z,16.10
2022-10-06T09:59:47.395Z,16.20
2022-10-06T10:02:39.556Z,16.20
2022-10-06T10:05:18.941Z,16.20
2022-10-06T10:07:48.004Z,16.20
2022-10-06T10:10:19.790Z,16.10
2022-10-06T10:13:00.161Z,16.00
2022-10-06T10:15:30.272Z,16.00
2022-10-06T10:17:58.890Z,15.80
2022-10-06T10:20:27.792Z,15.90
2022-10-06T10:22:58.246Z,16.20
2022-10-06T10:25:46.613Z,16.50
2022-10-06T10:28:52.688Z,16.90
2022-10-06T10:31:43.533Z,17.40
2022-10-06T10:34:24.437Z,17.60
2022-10-06T10:36:56.499Z,17.80
2022-10-06T10:39:38.455Z,17.90
2022-10-06T10:42:34.830Z,18.10
2022-10-06T10:45:04.305Z,18.20
2022-10-06T10:47:32.587Z,18.30
2022-10-06T10:50:11.181Z,18.40
2022-10-06T10:52:42.327Z,18.40
2022-10-06T10:55:29.547Z,18.50
2022-10-06T10:58:05.853Z,18.50
2022-10-06T11:00:40.996Z,18.50
2022-10-06T11:03:10.102Z,18.40
2022-10-06T11:05:58.607Z,18.40
2022-10-06T11:08:34.635Z,18.40
2022-10-06T11:11:04.917Z,18.30
2022-10-06T11:13:43.590Z,18.30
2022-10-06T11:16:29.634Z,18.30
2022-10-06T11:19:38.474Z,18.30
2022-10-06T11:22:14.719Z,18.50
2022-10-06T11:24:53.584Z,18.70
2022-10-06T11:27:38.745Z,18.70
2022-10-06T11:30:15.754Z,18.70
2022-10-06T11:32:47.568Z,18.70
2022-10-06T11:35:21.578Z,18.70
2022-10-06T11:37:56.994Z,18.50
2022-10-06T11:40:51.652Z,18.40
2022-10-06T11:43:29.819Z,18.30
2022-10-06T11:46:27.380Z,18.30
2022-10-06T11:49:30.189Z,18.10
2022-10-06T11:52:08.311Z,18.30
2022-10-06T11:54:50.333Z,18.40
2022-10-06T11:57:25.143Z,18.60
2022-10-06T12:00:14.830Z,18.60
2022-10-06T12:02:42.627Z,18.70
2022-10-06T12:05:45.885Z,18.70
2022-10-06T12:08:02.649Z,18.80
2022-10-06T12:10:29.233Z,18.80
2022-10-06T12:19:20.764Z,18.30
2022-10-06T12:22:16.220Z,18.10
2022-10-06T12:24:51.767Z,18.00
2022-10-06T12:27:44.253Z,17.90
2022-10-06T12:30:24.425Z,17.90
2022-10-06T12:32:58.769Z,17.80
2022-10-06T12:35:32.937Z,17.80
2022-10-06T12:38:05.313Z,17.90
2022-10-06T12:40:52.464Z,18.00
2022-10-06T12:43:27.908Z,18.30
2022-10-06T12:45:59.035Z,18.40
2022-10-06T12:48:51.635Z,18.60
2022-10-06T12:51:43.748Z,18.70
2022-10-06T12:54:33.465Z,18.70
2022-10-06T12:57:02.384Z,18.80
2022-10-06T12:59:34.619Z,18.70
2022-10-06T13:02:07.513Z,18.60
2022-10-06T13:04:44.836Z,18.60
2022-10-06T13:07:23.868Z,18.80
2022-10-06T13:09:53.908Z,18.90
2022-10-06T13:12:25.427Z,18.90
2022-10-06T13:15:13.722Z,18.80
2022-10-06T13:17:57.547Z,18.70
2022-10-06T13:20:36.433Z,18.60
2022-10-06T13:23:24.142Z,18.50
2022-10-06T13:25:53.807Z,18.60
2022-10-06T13:28:42.254Z,18.60
2022-10-06T13:31:34.639Z,18.50
2022-10-06T13:34:05.325Z,18.50
2022-10-06T13:36:35.359Z,18.50
2022-10-06T13:39:06.499Z,18.40
2022-10-06T13:41:37.956Z,18.30
2022-10-06T13:44:19.672Z,18.10
2022-10-06T13:46:50.164Z,18.00
2022-10-06T13:49:32.336Z,17.80
2022-10-06T13:52:15.455Z,17.80
2022-10-06T13:54:49.241Z,17.70
2022-10-06T13:57:37.075Z,17.70
2022-10-06T14:00:27.809Z,17.90
2022-10-06T14:03:09.773Z,18.00
2022-10-06T14:05:38.917Z,18.00
2022-10-06T14:08:11.371Z,18.10
2022-10-06T14:10:40.796Z,18.10
2022-10-06T14:13:29.743Z,18.10
2022-10-06T14:16:08.728Z,18.20
2022-10-06T14:18:46.957Z,18.20
2022-10-06T14:21:41.354Z,18.20
2022-10-06T14:24:16.794Z,18.20
2022-10-06T14:26:45.266Z,18.20
2022-10-06T14:29:14.048Z,18.20
2022-10-06T14:31:40.824Z,18.10
2022-10-06T14:34:14.386Z,18.10
2022-10-06T14:36:42.983Z,18.00
2022-10-06T14:39:12.672Z,18.00
2022-10-06T14:41:39.424Z,17.90
2022-10-06T14:44:12.005Z,18.00
2022-10-06T14:46:43.823Z,17.90
2022-10-06T14:49:13.256Z,17.90
2022-10-06T14:51:41.840Z,17.80
2022-10-06T14:54:11.136Z,17.80
2022-10-06T14:56:39.646Z,17.80
2022-10-06T14:59:08.904Z,17.70
2022-10-06T15:01:37.831Z,17.80
2022-10-06T15:04:08.421Z,17.70
2022-10-06T15:06:53.464Z,17.70
2022-10-06T15:09:21.246Z,17.60
2022-10-06T15:11:47.918Z,17.60
2022-10-06T15:14:15.244Z,17.60
2022-10-06T15:16:43.728Z,17.60
2022-10-06T15:19:11.742Z,17.60
2022-10-06T15:21:40.662Z,17.60
2022-10-06T15:24:10.736Z,17.60
2022-10-06T15:26:56.008Z,17.50
2022-10-06T15:29:22.645Z,17.40
2022-10-06T15:31:52.933Z,17.40
2022-10-06T15:34:23.396Z,17.30
2022-10-06T15:36:51.902Z,17.30
2022-10-06T15:39:20.739Z,17.20
2022-10-06T15:41:48.427Z,17.10
2022-10-06T15:44:15.539Z,17.00
2022-10-06T15:46:44.597Z,17.00
2022-10-06T15:49:13.557Z,16.90
2022-10-06T15:51:47.402Z,16.90
2022-10-06T15:54:19.042Z,16.90
2022-10-06T15:56:56.864Z,16.80
2022-10-06T15:59:25.043Z,16.80
2022-10-06T16:01:55.829Z,16.70
2022-10-06T16:04:44.993Z,16.70
2022-10-06T16:07:17.455Z,16.60
2022-10-06T16:09:49.523Z,16.50
2022-10-06T16:12:22.231Z,16.40
2022-10-06T16:14:49.323Z,16.40
2022-10-06T16:17:17.093Z,16.30
2022-10-06T16:19:44.227Z,16.20
2022-10-06T16:22:16.375Z,16.20
2022-10-06T16:24:43.038Z,16.10
2022-10-06T16:27:13.198Z,16.10
2022-10-06T16:29:40.238Z,15.90
2022-10-06T16:32:07.019Z,15.90
2022-10-06T16:34:33.660Z,15.80
2022-10-06T16:37:00.230Z,15.80
2022-10-06T16:39:26.876Z,15.70
2022-10-06T16:41:54.493Z,15.60
2022-10-06T16:44:21.211Z,15.50
2022-10-06T16:46:47.871Z,15.50
2022-10-06T16:49:14.594Z,15.40
2022-10-06T16:51:45.976Z,15.40
2022-10-06T16:54:14.226Z,15.20
2022-10-06T16:56:53.886Z,15.20
2022-10-06T16:59:28.635Z,15.10
2022-10-06T17:01:55.319Z,15.00
2022-10-06T17:04:24.140Z,14.90
2022-10-06T17:06:56.072Z,14.80
2022-10-06T17:09:25.039Z,14.80
2022-10-06T17:11:53.786Z,14.70
2022-10-06T17:14:21.879Z,14.70
2022-10-06T17:16:51.076Z,14.60
2022-10-06T17:19:20.451Z,14.60
2022-10-06T17:21:49.670Z,14.50
2022-10-06T17:24:18.601Z,14.40
2022-10-06T17:26:47.737Z,14.40
2022-10-06T17:29:20.976Z,14.30
2022-10-06T17:31:48.973Z,14.30
2022-10-06T17:34:20.682Z,14.20
2022-10-06T17:36:50.567Z,14.20
2022-10-06T17:39:19.804Z,14.10
2022-10-06T17:41:49.775Z,14.10
2022-10-06T17:44:21.212Z,14.00
2022-10-06T17:46:50.604Z,14.00
2022-10-06T17:49:21.953Z,13.90
2022-10-06T17:51:50.262Z,13.80
2022-10-06T17:54:20.098Z,13.80
2022-10-06T17:56:49.207Z,13.70
2022-10-06T17:59:18.811Z,13.70
2022-10-06T18:01:45.588Z,13.60
2022-10-06T18:04:15.979Z,13.60
2022-10-06T18:06:43.828Z,13.50
2022-10-06T18:09:11.026Z,13.50
2022-10-06T18:11:38.810Z,13.40
2022-10-06T18:14:07.277Z,13.40
2022-10-06T18:16:36.685Z,13.30
2022-10-06T18:19:16.704Z,13.30
2022-10-06T18:21:45.153Z,13.20
2022-10-06T18:24:21.155Z,13.20
2022-10-06T18:26:52.913Z,13.10
2022-10-06T18:29:22.090Z,13.10
2022-10-06T18:31:50.603Z,13.10
2022-10-06T18:37:04.517Z,12.90
2022-10-06T18:39:31.978Z,12.90
2022-10-06T18:42:03.483Z,12.80
2022-10-06T18:44:48.724Z,12.80
2022-10-06T18:47:34.143Z,12.80
2022-10-06T18:50:00.837Z,12.70
2022-10-06T18:52:27.547Z,12.70
2022-10-06T18:54:54.204Z,12.70
2022-10-06T18:57:25.069Z,12.60
2022-10-06T18:59:54.354Z,12.60
2022-10-06T19:02:21.115Z,12.50
2022-10-06T19:04:48.275Z,12.50
2022-10-06T19:07:14.961Z,12.50
2022-10-06T19:09:46.208Z,12.40
2022-10-06T19:12:13.987Z,12.40
2022-10-06T19:14:47.011Z,12.30
2022-10-06T19:17:14.784Z,12.30
2022-10-06T19:19:50.844Z,12.20
2022-10-06T19:22:23.704Z,12.20
2022-10-06T19:24:51.267Z,12.10
2022-10-06T19:27:23.879Z,12.10
2022-10-06T19:29:54.122Z,12.10
2022-10-06T19:32:25.280Z,12.10
2022-10-06T19:34:52.313Z,12.00
2022-10-06T19:37:19.061Z,12.00
2022-10-06T19:39:46.659Z,11.90
2022-10-06T19:42:33.861Z,11.90
2022-10-06T19:45:00.569Z,11.90
2022-10-06T19:47:27.589Z,11.80
2022-10-06T19:49:58.320Z,11.80
2022-10-06T19:52:26.581Z,11.70
2022-10-06T19:54:53.212Z,11.70
2022-10-06T19:57:19.859Z,11.70
2022-10-06T19:59:46.407Z,11.60
2022-10-06T20:02:13.083Z,11.60
2022-10-06T20:04:40.077Z,11.60
2022-10-06T20:07:08.668Z,11.50
2022-10-06T20:09:35.603Z,11.50
2022-10-06T20:12:02.295Z,11.50
2022-10-06T20:14:29.334Z,11.40
2022-10-06T20:16:57.375Z,11.40
2022-10-06T20:19:25.329Z,11.40
2022-10-06T20:21:53.118Z,11.40
2022-10-06T20:24:25.604Z,11.30
2022-10-06T20:26:53.187Z,11.30
2022-10-06T20:29:23.073Z,11.30
2022-10-06T20:31:52.714Z,11.30
2022-10-06T20:34:21.848Z,11.30
2022-10-06T20:36:54.596Z,11.30
2022-10-06T20:39:41.711Z,11.30
2022-10-06T20:42:13.923Z,11.30
2022-10-06T20:44:42.205Z,11.20
2022-10-06T20:47:10.162Z,11.20
2022-10-06T20:49:37.032Z,11.20
2022-10-06T20:52:04.922Z,11.10
2022-10-06T20:54:34.936Z,11.10
2022-10-06T20:57:04.286Z,11.10
2022-10-06T20:59:32.106Z,11.10
2022-10-06T21:02:02.279Z,11.10
2022-10-06T21:04:29.332Z,11.00
2022-10-06T21:06:56.980Z,11.00
2022-10-06T21:09:24.400Z,11.00
2022-10-06T21:11:51.350Z,11.00
2022-10-06T21:14:18.628Z,10.90
2022-10-06T21:16:46.906Z,10.90
2022-10-06T21:19:16.629Z,10.90
2022-10-06T21:21:45.751Z,10.80
2022-10-06T21:24:12.868Z,10.80
2022-10-06T21:26:42.304Z,10.80
2022-10-06T21:29:11.422Z,10.70
2022-10-06T21:31:38.379Z,10.70
2022-10-06T21:34:05.161Z,10.70
2022-10-06T21:36:32.030Z,10.60
2022-10-06T21:39:00.648Z,10.60
2022-10-06T21:41:30.403Z,10.60
2022-10-06T21:44:01.347Z,10.60
2022-10-06T21:46:33.725Z,10.60
2022-10-06T21:49:01.806Z,10.60
2022-10-06T21:51:30.557Z,10.60
2022-10-06T21:53:58.971Z,10.60
2022-10-06T21:56:27.835Z,10.50
2022-10-06T21:58:55.801Z,10.50
2022-10-06T22:01:26.189Z,10.50
2022-10-06T22:03:53.890Z,10.50
2022-10-06T22:06:21.929Z,10.50
2022-10-06T22:08:49.342Z,10.40
2022-10-06T22:11:18.273Z,10.40
2022-10-06T22:13:47.399Z,10.40
2022-10-06T22:16:18.263Z,10.40
2022-10-06T22:18:45.513Z,10.40
2022-10-06T22:21:16.347Z,10.40
2022-10-06T22:23:44.542Z,10.40
2022-10-06T22:26:12.572Z,10.40
2022-10-06T22:28:49.233Z,10.40
2022-10-06T22:31:26.219Z,10.40
2022-10-06T22:34:01.439Z,10.40
2022-10-06T22:36:28.845Z,10.40
2022-10-06T22:38:56.997Z,10.40
2022-10-06T22:41:23.863Z,10.40
2022-10-06T22:43:57.198Z,10.40
2022-10-06T22:46:25.608Z,10.30
2022-10-06T22:48:52.584Z,10.30
2022-10-06T22:51:19.474Z,10.30
2022-10-06T22:53:46.460Z,10.30
2022-10-06T22:56:13.142Z,10.30
2022-10-06T22:58:39.887Z,10.30
2022-10-06T23:01:11.893Z,10.30
2022-10-06T23:03:39.698Z,10.20
2022-10-06T23:06:07.478Z,10.20
2022-10-06T23:08:35.421Z,10.20
2022-10-06T23:11:05.526Z,10.20
2022-10-06T23:13:32.305Z,10.10
2022-10-06T23:16:07.349Z,10.10
2022-10-06T23:18:36.398Z,10.10
2022-10-06T23:21:05.033Z,10.10
2022-10-06T23:23:32.337Z,10.10
2022-10-06T23:26:10.902Z,10.10
2022-10-06T23:28:38.532Z,10.10
2022-10-06T23:31:06.889Z,10.10
2022-10-06T23:33:34.345Z,10.10
2022-10-06T23:36:03.794Z,10.10
2022-10-06T23:38:30.505Z,10.00
2022-10-06T23:40:57.516Z,10.00
2022-10-06T23:43:24.290Z,10.00
2022-10-06T23:45:51.192Z,10.00
2022-10-06T23:48:18.063Z,10.00
2022-10-06T23:50:54.705Z,10.00
2022-10-06T23:53:21.419Z,10.00
2022-10-06T23:55:48.023Z,10.00
2022-10-06T23:58:14.756Z,10.00
